Lexington, KY (40502)

6:10 AM EST on February 08, 2016 (GMT -0500)
Plainview | | Change Station
CLOSE
Current Station
Personal Weather Station
Location: Lexington, KY
Elevation: 1001 ft
Nearby Weather Stations
Active Advisory: Winter Weather Advisory

Elev 1001 ft 38.00 °N, 84.46 °W | Updated 1 minute ago

Snow
Snow
36.0 °F
Feels Like 36 °F
N
1.1
Wind Variable Wind from NNW

Today
High -- | Low -- °F
--% Chance of Precip.
Yesterday
High -- | Low -- °F
Precip. -- in
Pressure 29.73 in
Visibility 10.0 miles
Clouds Scattered Clouds 1800 ft
Mostly Cloudy 2500 ft
Overcast 3100 ft
Windchill 36 °F
Dew Point 35 °F
Humidity 97%
Rainfall 0.13 in
Snow Depth Not available.
7:36 AM 6:08 PM
Waning Crescent, 0% visible
METAR KLEX 081054Z AUTO 23005KT 10SM -RA SCT018 BKN025 OVC031 02/01 A2972 RMK AO2 SLP066 P0001 T00220011 $
Pressure 29.73 in
Visibility 10.0 miles
Clouds Scattered Clouds 1800 ft
Mostly Cloudy 2500 ft
Overcast 3100 ft
Windchill 36 °F
Dew Point 35 °F
Humidity 97%
Rainfall 0.13 in
Snow Depth Not available.
7:36 AM 6:08 PM
Waning Crescent, 0% visible
METAR KLEX 081054Z AUTO 23005KT 10SM -RA SCT018 BKN025 OVC031 02/01 A2972 RMK AO2 SLP066 P0001 T00220011 $

10-Day Weather Forecast

Almanac

Astronomy

Feb. 08, 2016 Rise Set
Actual Time
Civil Twilight
Nautical Twilight
Astronomical Twilight
Moon
Length of Visible Light
Length of Day
Tomorrow will be .
, % of the Moon is Illuminated

Today's Extremes

State Highs State Lows

Community

WunderPhotos

Upload Photos

1,891,420 photos uploaded!

WunderBlog® & News

Nearby

Air Quality

  Air Quality AQ Index Pollutant
Not available.

Snow Depth

Station Depth Elevation

Earthquake Activity

City Distance Mag. Time & Date
Minimum magnitude displayed is 2.5.

Coastal Water Temperatures

Place Temperature

Stations

Nearby Weather Stations

Station Location Temp. Windchill Dew Point Humidity Wind Precip. Elev Updated Type
                   

Watches & Warnings

Winter Weather Advisory
Issued: 2:34 AM CST Feb. 8, 2016 – National Weather Service

... Winter Weather Advisory remains in effect from 5 PM EST /4 PM
CST/ this afternoon to 6 PM EST /5 PM CST/ Tuesday...

* timing... this evening through at least Tuesday evening.

* Main impact... periods of moderate to briefly heavy snow showers
will impact travel at times. Roads may become slick and snow
covered... especially secondary and untreated surfaces.

* Other impacts... gusty winds along with moderate snow showers may
reduce visibility at times.

Precautionary/preparedness actions...

Research shows that more traffic accidents occur with an inch or
less of snow... before drivers realize that traction is reduced.
Don't become a statistic... slow down and leave extra distance
between vehicles.



Ams